sensor_id;sensor_type;location;lat;lon;timestamp;P1;durP1;ratioP1;P2;durP2;ratioP2
82415;SDS011;72058;47.782;10.618;2023-08-07T00:01:13;2.40;;;1.40;;
82415;SDS011;72058;47.782;10.618;2023-08-07T00:03:39;1.50;;;1.23;;
82415;SDS011;72058;47.782;10.618;2023-08-07T00:06:04;1.97;;;1.40;;
82415;SDS011;72058;47.782;10.618;2023-08-07T00:08:30;1.42;;;1.10;;
82415;SDS011;72058;47.782;10.618;2023-08-07T00:11:06;1.80;;;1.60;;
82415;SDS011;72058;47.782;10.618;2023-08-07T00:16:00;1.77;;;1.50;;
82415;SDS011;72058;47.782;10.618;2023-08-07T00:18:26;1.40;;;1.10;;
82415;SDS011;72058;47.782;10.618;2023-08-07T00:20:51;1.70;;;1.37;;
82415;SDS011;72058;47.782;10.618;2023-08-07T00:23:16;2.30;;;1.45;;
82415;SDS011;72058;47.782;10.618;2023-08-07T00:25:42;1.47;;;1.30;;
82415;SDS011;72058;47.782;10.618;2023-08-07T00:28:07;1.63;;;1.33;;
82415;SDS011;72058;47.782;10.618;2023-08-07T00:30:32;2.30;;;1.48;;
82415;SDS011;72058;47.782;10.618;2023-08-07T00:32:58;1.70;;;1.40;;
82415;SDS011;72058;47.782;10.618;2023-08-07T00:35:23;1.80;;;1.30;;
82415;SDS011;72058;47.782;10.618;2023-08-07T00:37:48;1.57;;;1.47;;
82415;SDS011;72058;47.782;10.618;2023-08-07T00:40:14;1.60;;;1.30;;
82415;SDS011;72058;47.782;10.618;2023-08-07T00:42:39;1.60;;;1.17;;
82415;SDS011;72058;47.782;10.618;2023-08-07T00:45:04;1.40;;;1.10;;
82415;SDS011;72058;47.782;10.618;2023-08-07T00:47:30;1.63;;;1.25;;
82415;SDS011;72058;47.782;10.618;2023-08-07T00:49:56;1.58;;;1.30;;
82415;SDS011;72058;47.782;10.618;2023-08-07T00:52:23;1.67;;;1.48;;
82415;SDS011;72058;47.782;10.618;2023-08-07T00:54:49;1.95;;;1.40;;
82415;SDS011;72058;47.782;10.618;2023-08-07T00:57:15;2.08;;;1.33;;
82415;SDS011;72058;47.782;10.618;2023-08-07T00:59:41;1.77;;;1.50;;
82415;SDS011;72058;47.782;10.618;2023-08-07T01:04:34;1.90;;;1.38;;
82415;SDS011;72058;47.782;10.618;2023-08-07T01:06:59;2.50;;;1.25;;
82415;SDS011;72058;47.782;10.618;2023-08-07T01:09:24;1.63;;;1.42;;
82415;SDS011;72058;47.782;10.618;2023-08-07T01:11:54;3.08;;;1.60;;
82415;SDS011;72058;47.782;10.618;2023-08-07T01:19:28;1.25;;;1.10;;
82415;SDS011;72058;47.782;10.618;2023-08-07T01:22:07;1.50;;;1.30;;
82415;SDS011;72058;47.782;10.618;2023-08-07T01:24:35;1.55;;;1.20;;
82415;SDS011;72058;47.782;10.618;2023-08-07T01:27:07;1.90;;;1.35;;
82415;SDS011;72058;47.782;10.618;2023-08-07T01:29:37;1.70;;;1.33;;
82415;SDS011;72058;47.782;10.618;2023-08-07T01:32:09;1.90;;;1.33;;
82415;SDS011;72058;47.782;10.618;2023-08-07T01:34:38;1.65;;;1.25;;
82415;SDS011;72058;47.782;10.618;2023-08-07T01:37:06;1.30;;;1.20;;
82415;SDS011;72058;47.782;10.618;2023-08-07T01:39:35;1.83;;;1.65;;
82415;SDS011;72058;47.782;10.618;2023-08-07T01:42:02;1.52;;;1.30;;
82415;SDS011;72058;47.782;10.618;2023-08-07T12:03:41;4.28;;;3.78;;
82415;SDS011;72058;47.782;10.618;2023-08-07T12:06:08;3.97;;;3.00;;
82415;SDS011;72058;47.782;10.618;2023-08-07T12:08:38;3.33;;;3.00;;
82415;SDS011;72058;47.782;10.618;2023-08-07T12:11:05;3.30;;;2.65;;
82415;SDS011;72058;47.782;10.618;2023-08-07T12:13:36;3.22;;;2.40;;
82415;SDS011;72058;47.782;10.618;2023-08-07T12:16:02;2.20;;;1.95;;
82415;SDS011;72058;47.782;10.618;2023-08-07T12:18:30;2.85;;;2.08;;
82415;SDS011;72058;47.782;10.618;2023-08-07T12:20:57;3.45;;;2.40;;
82415;SDS011;72058;47.782;10.618;2023-08-07T12:23:24;3.25;;;2.33;;
82415;SDS011;72058;47.782;10.618;2023-08-07T12:25:50;2.50;;;2.28;;
82415;SDS011;72058;47.782;10.618;2023-08-07T12:28:17;2.42;;;2.05;;
82415;SDS011;72058;47.782;10.618;2023-08-07T12:30:44;2.65;;;2.35;;
82415;SDS011;72058;47.782;10.618;2023-08-07T12:33:11;3.05;;;2.30;;
82415;SDS011;72058;47.782;10.618;2023-08-07T12:35:37;3.03;;;2.38;;
82415;SDS011;72058;47.782;10.618;2023-08-07T12:38:02;2.53;;;2.33;;
82415;SDS011;72058;47.782;10.618;2023-08-07T12:40:28;3.03;;;2.22;;
82415;SDS011;72058;47.782;10.618;2023-08-07T12:42:55;3.35;;;2.53;;
82415;SDS011;72058;47.782;10.618;2023-08-07T12:45:20;2.63;;;1.65;;
82415;SDS011;72058;47.782;10.618;2023-08-07T12:47:45;2.85;;;2.00;;
82415;SDS011;72058;47.782;10.618;2023-08-07T12:50:11;2.10;;;1.90;;
82415;SDS011;72058;47.782;10.618;2023-08-07T12:52:36;2.33;;;2.10;;
82415;SDS011;72058;47.782;10.618;2023-08-07T12:55:02;3.03;;;2.38;;
82415;SDS011;72058;47.782;10.618;2023-08-07T12:57:28;2.38;;;2.15;;
82415;SDS011;72058;47.782;10.618;2023-08-07T12:59:53;2.57;;;2.37;;
82415;SDS011;72058;47.782;10.618;2023-08-07T13:02:19;2.30;;;2.10;;
82415;SDS011;72058;47.782;10.618;2023-08-07T13:04:44;2.23;;;2.03;;
82415;SDS011;72058;47.782;10.618;2023-08-07T13:07:11;2.78;;;1.83;;
82415;SDS011;72058;47.782;10.618;2023-08-07T13:09:37;2.47;;;2.22;;
82415;SDS011;72058;47.782;10.618;2023-08-07T13:12:02;3.17;;;2.35;;
82415;SDS011;72058;47.782;10.618;2023-08-07T13:14:28;2.83;;;2.25;;
82415;SDS011;72058;47.782;10.618;2023-08-07T13:16:53;2.42;;;2.20;;
82415;SDS011;72058;47.782;10.618;2023-08-07T13:19:18;2.50;;;2.20;;
82415;SDS011;72058;47.782;10.618;2023-08-07T13:21:44;2.20;;;2.00;;
82415;SDS011;72058;47.782;10.618;2023-08-07T13:24:09;2.40;;;2.20;;
82415;SDS011;72058;47.782;10.618;2023-08-07T13:26:34;2.47;;;2.27;;
